Terminal Aerodrome Forecast
Issued by NWS

Home | Current Version | Previous Version | Text Only | Print | Product List | Glossary On
Versions: 1 2 3 4 5 6 7 8 9 10 11 12 13 14 15 16
162
FTUS45 KTFX 282327
TAFCTB
TAF
KCTB 282327Z 2900/2924 25013G22KT P6SM SCT070 BKN100
     FM290300 25009KT P6SM SCT150
     FM291800 25014G20KT P6SM SCT120 BKN250=

USA.gov is the U.S. government's official web portal to all federal, state and local government web resources and services.